createdAt,value
2019-06-26T00:02:04.851Z,33.50
2019-06-26T00:04:31.450Z,35.13
2019-06-26T00:06:58.050Z,33.87
2019-06-26T00:09:24.533Z,35.03
2019-06-26T00:11:51.704Z,36.10
2019-06-26T00:14:18.155Z,34.03
2019-06-26T00:16:44.975Z,34.57
2019-06-26T00:19:11.631Z,33.23
2019-06-26T00:21:38.302Z,33.93
2019-06-26T00:24:04.951Z,33.77
2019-06-26T00:26:31.414Z,34.57
2019-06-26T00:28:57.926Z,30.83
2019-06-26T00:31:24.709Z,32.77
2019-06-26T00:33:51.388Z,31.20
2019-06-26T00:36:17.985Z,30.90
2019-06-26T00:38:44.516Z,30.67
2019-06-26T00:41:11.136Z,28.10
2019-06-26T00:43:42.411Z,29.63
2019-06-26T00:46:05.839Z,30.50
2019-06-26T00:48:32.326Z,31.10
2019-06-26T00:50:58.805Z,30.83
2019-06-26T00:53:25.224Z,29.77
2019-06-26T00:55:55.081Z,30.13
2019-06-26T00:58:20.455Z,28.70
2019-06-26T01:00:51.052Z,27.03
2019-06-26T01:03:17.762Z,27.83
2019-06-26T01:05:44.281Z,29.80
2019-06-26T01:08:10.898Z,30.33
2019-06-26T01:10:37.360Z,27.60
2019-06-26T01:13:03.948Z,28.03
2019-06-26T01:15:30.320Z,28.17
2019-06-26T01:17:57.238Z,28.00
2019-06-26T01:20:23.683Z,27.60
2019-06-26T01:22:50.155Z,28.30
2019-06-26T01:25:16.701Z,27.40
2019-06-26T01:27:44.281Z,29.20
2019-06-26T01:30:11.143Z,28.20
2019-06-26T01:32:37.926Z,29.07
2019-06-26T01:35:07.518Z,29.13
2019-06-26T01:37:34.146Z,28.20
2019-06-26T01:40:00.705Z,29.47
2019-06-26T01:42:27.436Z,28.60
2019-06-26T01:44:53.859Z,30.47
2019-06-26T01:47:20.371Z,29.63
2019-06-26T01:49:46.836Z,28.67
2019-06-26T01:52:13.520Z,27.00
2019-06-26T01:54:40.137Z,26.20
2019-06-26T01:57:06.569Z,27.83
2019-06-26T01:59:33.264Z,28.10
2019-06-26T02:01:59.879Z,25.13
2019-06-26T02:04:26.422Z,25.83
2019-06-26T02:06:53.060Z,25.90
2019-06-26T02:09:19.626Z,27.13
2019-06-26T02:11:46.337Z,26.30
2019-06-26T02:14:12.979Z,25.17
2019-06-26T02:16:39.579Z,26.17
2019-06-26T02:19:10.559Z,25.80
2019-06-26T02:21:37.015Z,27.80
2019-06-26T02:24:05.331Z,27.40
2019-06-26T02:26:31.692Z,27.30
2019-06-26T02:28:58.171Z,29.20
2019-06-26T02:31:25.135Z,27.23
2019-06-26T02:33:51.527Z,29.10
2019-06-26T02:36:18.403Z,27.50
2019-06-26T02:38:45.085Z,25.47
2019-06-26T02:41:11.825Z,26.93
2019-06-26T02:43:38.569Z,28.80
2019-06-26T02:46:05.278Z,29.27
2019-06-26T02:48:31.576Z,26.70
2019-06-26T02:50:57.992Z,30.10
2019-06-26T02:53:24.402Z,27.13
2019-06-26T02:55:50.894Z,29.03
2019-06-26T02:58:17.512Z,27.07
2019-06-26T03:00:44.231Z,28.33
2019-06-26T03:03:10.886Z,27.03
2019-06-26T03:05:37.465Z,28.47
2019-06-26T03:08:04.139Z,31.33
2019-06-26T03:10:30.670Z,30.53
2019-06-26T03:12:57.039Z,30.47
2019-06-26T03:15:23.657Z,29.77
2019-06-26T03:17:55.482Z,28.00
2019-06-26T03:20:22.770Z,26.20
2019-06-26T03:22:49.386Z,25.17
2019-06-26T03:25:16.000Z,23.37
2019-06-26T03:27:42.638Z,26.77
2019-06-26T03:30:09.557Z,26.77
2019-06-26T03:32:36.150Z,24.60
2019-06-26T03:35:03.075Z,27.57
2019-06-26T03:37:29.819Z,28.53
2019-06-26T03:39:56.489Z,25.77
2019-06-26T03:42:23.039Z,25.27
2019-06-26T03:44:49.871Z,27.77
2019-06-26T03:47:16.213Z,28.47
2019-06-26T03:49:42.478Z,31.43
2019-06-26T03:52:08.744Z,28.20
2019-06-26T03:54:34.852Z,26.93
2019-06-26T03:57:00.966Z,26.93
2019-06-26T03:59:27.135Z,25.07
2019-06-26T04:01:53.347Z,24.00
2019-06-26T04:04:19.542Z,24.70
2019-06-26T04:06:45.698Z,24.80
2019-06-26T04:09:11.832Z,23.17
2019-06-26T04:11:38.033Z,22.43
2019-06-26T04:14:04.336Z,24.67
2019-06-26T04:16:30.545Z,24.57
2019-06-26T04:18:56.710Z,22.07
2019-06-26T04:21:23.237Z,22.27
2019-06-26T04:23:49.447Z,21.80
2019-06-26T04:26:15.557Z,22.83
2019-06-26T04:28:41.947Z,23.87
2019-06-26T04:31:08.132Z,24.00
2019-06-26T04:33:34.236Z,24.53
2019-06-26T04:36:00.504Z,25.07
2019-06-26T04:38:26.705Z,22.73
2019-06-26T04:40:52.812Z,23.73
2019-06-26T04:43:19.081Z,25.17
2019-06-26T04:45:57.763Z,23.33
2019-06-26T04:48:13.183Z,24.60
2019-06-26T04:50:40.133Z,22.37
2019-06-26T04:53:06.432Z,22.37
2019-06-26T04:55:32.559Z,23.47
2019-06-26T04:57:58.923Z,21.97
2019-06-26T05:00:25.080Z,24.17
2019-06-26T05:02:51.272Z,23.70
2019-06-26T05:05:17.534Z,22.97
2019-06-26T05:07:43.747Z,19.03
2019-06-26T05:10:11.247Z,18.57
2019-06-26T05:12:37.624Z,20.93
2019-06-26T05:15:05.732Z,19.80
2019-06-26T05:17:31.932Z,20.27
2019-06-26T05:19:58.206Z,20.50
2019-06-26T05:22:24.445Z,19.50
2019-06-26T05:24:50.540Z,18.83
2019-06-26T05:27:16.693Z,17.57
2019-06-26T05:29:42.838Z,18.63
2019-06-26T05:32:09.026Z,18.30
2019-06-26T05:34:35.413Z,16.50
2019-06-26T05:37:01.509Z,15.33
2019-06-26T05:39:27.651Z,17.73
2019-06-26T05:41:54.025Z,17.43
2019-06-26T05:44:20.243Z,17.10
2019-06-26T05:46:46.486Z,16.03
2019-06-26T05:49:12.711Z,18.83
2019-06-26T05:51:38.813Z,16.53
2019-06-26T05:54:04.922Z,15.53
2019-06-26T05:56:31.058Z,15.90
2019-06-26T05:58:57.451Z,17.30
2019-06-26T06:01:23.650Z,16.70
2019-06-26T06:03:49.945Z,15.87
2019-06-26T06:06:16.073Z,16.03
2019-06-26T06:08:42.223Z,14.20
2019-06-26T06:11:08.469Z,14.97
2019-06-26T06:13:34.585Z,15.63
2019-06-26T06:16:00.773Z,15.93
2019-06-26T06:18:27.014Z,15.70
2019-06-26T06:20:53.252Z,16.37
2019-06-26T06:23:19.447Z,15.60
2019-06-26T06:25:45.610Z,14.80
2019-06-26T06:28:11.940Z,15.40
2019-06-26T06:30:38.148Z,16.23
2019-06-26T06:33:04.393Z,16.10
2019-06-26T06:35:30.538Z,14.73
2019-06-26T06:37:56.733Z,14.47
2019-06-26T06:40:23.025Z,14.13
2019-06-26T06:42:49.541Z,14.17
2019-06-26T06:45:16.641Z,14.73
2019-06-26T06:47:43.047Z,13.60
2019-06-26T06:50:09.468Z,15.17
2019-06-26T06:52:35.633Z,13.83
2019-06-26T06:55:03.728Z,14.17
2019-06-26T06:57:29.868Z,15.27
2019-06-26T06:59:55.975Z,14.33
2019-06-26T07:02:22.174Z,14.00
2019-06-26T07:04:48.390Z,13.37
2019-06-26T07:07:14.582Z,13.23
2019-06-26T07:09:40.733Z,15.27
2019-06-26T07:12:06.845Z,15.03
2019-06-26T07:14:32.933Z,14.23
2019-06-26T07:17:01.444Z,13.67
2019-06-26T07:19:27.279Z,13.77
2019-06-26T07:21:53.482Z,12.73
2019-06-26T07:24:19.786Z,13.47
2019-06-26T07:26:46.078Z,13.07
2019-06-26T07:29:12.185Z,13.00
2019-06-26T07:31:38.661Z,14.43
2019-06-26T07:34:04.836Z,14.50
2019-06-26T07:36:30.985Z,12.87
2019-06-26T07:38:57.219Z,13.03
2019-06-26T07:41:23.429Z,13.93
2019-06-26T07:43:49.647Z,13.17
2019-06-26T07:46:15.873Z,14.43
2019-06-26T07:48:41.984Z,13.43
2019-06-26T07:51:08.099Z,12.63
2019-06-26T07:53:34.362Z,12.63
2019-06-26T07:56:00.566Z,14.30
2019-06-26T07:58:26.809Z,11.80
2019-06-26T08:00:53.149Z,11.10
2019-06-26T08:03:19.367Z,10.77
2019-06-26T08:05:45.465Z,11.23
2019-06-26T08:08:14.467Z,12.07
2019-06-26T08:10:40.606Z,12.40
2019-06-26T08:13:06.811Z,11.40
2019-06-26T08:15:33.065Z,12.73
2019-06-26T08:18:01.356Z,12.53
2019-06-26T08:20:27.275Z,13.37
2019-06-26T08:22:53.504Z,13.17
2019-06-26T08:25:19.917Z,12.43
2019-06-26T08:27:46.100Z,13.70
2019-06-26T08:30:12.640Z,12.77
2019-06-26T08:32:38.849Z,12.77
2019-06-26T08:35:05.265Z,12.67
2019-06-26T08:37:31.439Z,10.47
2019-06-26T08:39:57.646Z,12.00
2019-06-26T08:42:23.872Z,12.00
2019-06-26T08:44:50.121Z,12.90
2019-06-26T08:47:16.338Z,12.50
2019-06-26T08:49:42.461Z,14.70
2019-06-26T08:52:08.805Z,15.13
2019-06-26T08:54:35.025Z,13.73
2019-06-26T08:57:01.172Z,14.40
2019-06-26T08:59:27.408Z,13.83
2019-06-26T09:01:53.546Z,13.80
2019-06-26T09:04:19.741Z,12.73
2019-06-26T09:06:46.051Z,13.80
2019-06-26T09:09:12.258Z,14.57
2019-06-26T09:11:38.377Z,14.17
2019-06-26T09:14:04.602Z,13.87
2019-06-26T09:16:30.717Z,12.57
2019-06-26T09:18:56.849Z,12.93
2019-06-26T09:21:23.085Z,13.37
2019-06-26T09:23:49.475Z,13.27
2019-06-26T09:26:16.370Z,14.33
2019-06-26T09:28:42.641Z,15.13
2019-06-26T09:31:08.856Z,16.00
2019-06-26T09:33:34.978Z,16.87
2019-06-26T09:36:01.236Z,15.37
2019-06-26T09:38:27.426Z,14.23
2019-06-26T09:40:53.685Z,15.07
2019-06-26T09:43:20.077Z,14.87
2019-06-26T09:45:46.290Z,13.67
2019-06-26T09:48:12.522Z,14.47
2019-06-26T09:50:38.788Z,13.97
2019-06-26T09:53:05.618Z,15.23
2019-06-26T09:55:31.892Z,16.57
2019-06-26T09:57:58.045Z,15.17
2019-06-26T10:00:24.662Z,15.53
2019-06-26T10:02:50.849Z,14.33
2019-06-26T10:05:17.336Z,15.57
2019-06-26T10:07:43.556Z,13.93
2019-06-26T10:10:10.872Z,15.27
2019-06-26T10:12:37.211Z,13.67
2019-06-26T10:15:06.855Z,13.13
2019-06-26T10:17:33.076Z,13.63
2019-06-26T10:19:59.368Z,15.53
2019-06-26T10:22:25.542Z,15.37
2019-06-26T10:24:51.680Z,14.43
2019-06-26T10:27:18.282Z,13.73
2019-06-26T10:29:44.430Z,13.57
2019-06-26T10:32:10.640Z,14.27
2019-06-26T10:34:37.917Z,14.13
2019-06-26T10:37:04.043Z,14.63
2019-06-26T10:39:30.145Z,13.70
2019-06-26T10:41:56.286Z,13.93
2019-06-26T10:44:22.525Z,14.07
2019-06-26T10:46:48.639Z,13.93
2019-06-26T10:49:26.520Z,14.33
2019-06-26T10:51:42.815Z,12.57
2019-06-26T10:54:09.025Z,12.10
2019-06-26T10:56:35.181Z,13.10
2019-06-26T10:59:01.433Z,13.20
2019-06-26T11:01:27.697Z,12.57
2019-06-26T11:03:54.002Z,13.23
2019-06-26T11:06:20.204Z,12.60
2019-06-26T11:08:46.341Z,13.03
2019-06-26T11:11:12.488Z,10.73
2019-06-26T11:13:38.618Z,11.20
2019-06-26T11:16:04.818Z,12.60
2019-06-26T11:18:31.267Z,13.67
2019-06-26T11:20:57.534Z,13.17
2019-06-26T11:23:23.738Z,14.47
2019-06-26T11:25:49.887Z,14.63
2019-06-26T11:28:16.702Z,13.50
2019-06-26T11:30:42.800Z,11.70
2019-06-26T11:33:09.092Z,11.77
2019-06-26T11:35:35.288Z,11.03
2019-06-26T11:38:01.475Z,11.37
2019-06-26T11:40:27.704Z,11.60
2019-06-26T11:42:54.115Z,10.67
2019-06-26T11:45:20.520Z,10.57
2019-06-26T11:47:46.787Z,12.03
2019-06-26T11:50:13.406Z,11.07
2019-06-26T11:52:39.619Z,10.87
2019-06-26T11:55:07.327Z,10.27
2019-06-26T11:57:33.449Z,10.90
2019-06-26T11:59:59.704Z,11.37
2019-06-26T12:02:25.999Z,10.27
2019-06-26T12:04:52.261Z,10.07
2019-06-26T12:07:19.017Z,10.03
2019-06-26T12:09:45.172Z,11.33
2019-06-26T12:12:11.365Z,10.97
2019-06-26T12:14:37.471Z,11.10
2019-06-26T12:17:03.740Z,10.27
2019-06-26T12:19:29.931Z,10.97
2019-06-26T12:21:56.143Z,10.23
2019-06-26T12:24:22.296Z,11.50
2019-06-26T12:26:48.423Z,11.33
2019-06-26T12:29:14.677Z,11.60
2019-06-26T12:31:40.997Z,11.90
2019-06-26T12:34:07.220Z,11.00
2019-06-26T12:36:33.478Z,10.73
2019-06-26T12:38:59.795Z,10.67
2019-06-26T12:41:25.892Z,10.23
2019-06-26T12:43:52.007Z,10.17
2019-06-26T12:46:18.425Z,9.20
2019-06-26T12:48:44.599Z,9.33
2019-06-26T12:51:10.709Z,9.33
2019-06-26T12:53:36.864Z,10.00
2019-06-26T12:56:02.979Z,9.23
2019-06-26T12:58:29.204Z,9.43
2019-06-26T13:00:55.464Z,10.87
2019-06-26T13:03:21.700Z,9.37
2019-06-26T13:05:47.811Z,10.47
2019-06-26T13:08:13.955Z,10.57
2019-06-26T13:10:49.680Z,11.10
2019-06-26T13:13:08.097Z,9.80
2019-06-26T13:15:34.278Z,10.07
2019-06-26T13:18:01.480Z,9.87
2019-06-26T13:20:27.756Z,9.67
2019-06-26T13:22:53.909Z,10.37
2019-06-26T13:25:20.020Z,11.03
2019-06-26T13:27:46.132Z,9.57
2019-06-26T13:30:16.167Z,10.13
2019-06-26T13:32:42.379Z,10.23
2019-06-26T13:35:08.884Z,9.63
2019-06-26T13:37:35.213Z,9.00
2019-06-26T13:40:01.537Z,8.10
2019-06-26T13:42:27.734Z,8.63
2019-06-26T13:44:54.013Z,7.73
2019-06-26T13:47:20.253Z,7.57
2019-06-26T13:49:48.452Z,8.17
2019-06-26T13:52:14.681Z,8.07
2019-06-26T13:54:40.773Z,6.60
2019-06-26T13:57:06.880Z,6.77
2019-06-26T13:59:33.329Z,6.97
2019-06-26T14:01:59.441Z,7.67
2019-06-26T14:04:25.640Z,7.77
2019-06-26T14:06:51.898Z,6.97
2019-06-26T14:09:18.090Z,7.10
2019-06-26T14:11:44.281Z,7.30
2019-06-26T14:14:10.535Z,7.40
2019-06-26T14:16:36.739Z,7.10
2019-06-26T14:19:03.464Z,7.67
2019-06-26T14:21:30.394Z,7.27
2019-06-26T14:23:57.216Z,7.23
2019-06-26T14:26:23.434Z,6.07
2019-06-26T14:28:49.682Z,7.83
2019-06-26T14:31:17.444Z,6.97
2019-06-26T14:33:43.659Z,6.77
2019-06-26T14:36:10.382Z,7.50
2019-06-26T14:38:36.642Z,7.65
2019-06-26T14:41:02.944Z,7.20
2019-06-26T14:43:29.174Z,6.93
2019-06-26T14:45:55.553Z,7.50
2019-06-26T14:48:21.725Z,6.87
2019-06-26T14:50:53.006Z,6.50
2019-06-26T14:53:19.447Z,6.33
2019-06-26T14:55:45.659Z,7.43
2019-06-26T14:58:12.451Z,6.47
2019-06-26T15:00:38.640Z,6.83
2019-06-26T15:03:05.353Z,6.10
2019-06-26T15:05:32.033Z,5.90
2019-06-26T15:07:58.591Z,6.03
2019-06-26T15:10:25.021Z,6.67
2019-06-26T15:12:51.641Z,6.00
2019-06-26T15:15:21.245Z,6.87
2019-06-26T15:17:47.956Z,6.47
2019-06-26T15:20:16.442Z,6.67
2019-06-26T15:22:42.603Z,6.43
2019-06-26T15:25:09.530Z,6.40
2019-06-26T15:27:35.764Z,6.70
2019-06-26T15:30:05.265Z,7.33
2019-06-26T15:32:31.482Z,6.70
2019-06-26T15:34:57.722Z,7.40
2019-06-26T15:37:23.829Z,7.83
2019-06-26T15:39:50.053Z,8.53
2019-06-26T15:42:16.770Z,7.53
2019-06-26T15:44:43.626Z,9.23
2019-06-26T15:47:10.757Z,7.90
2019-06-26T15:49:37.436Z,7.00
2019-06-26T15:52:14.466Z,6.10
2019-06-26T15:54:32.310Z,6.73
2019-06-26T15:56:59.567Z,5.90
2019-06-26T15:59:26.935Z,6.43
2019-06-26T16:01:54.223Z,6.20
2019-06-26T16:04:20.428Z,6.20
2019-06-26T16:06:46.784Z,5.77
2019-06-26T16:09:13.086Z,5.47
2019-06-26T16:11:39.360Z,6.53
2019-06-26T16:14:05.494Z,6.57
2019-06-26T16:16:32.821Z,6.67
2019-06-26T16:19:00.962Z,6.07
2019-06-26T16:21:27.934Z,5.80
2019-06-26T16:23:54.357Z,6.07
2019-06-26T16:26:20.634Z,5.10
2019-06-26T16:28:46.890Z,5.17
2019-06-26T16:31:13.143Z,5.00
2019-06-26T16:33:39.432Z,5.63
2019-06-26T16:36:05.600Z,5.28
2019-06-26T16:38:32.077Z,4.60
2019-06-26T16:40:58.842Z,4.80
2019-06-26T16:43:25.434Z,4.73
2019-06-26T16:45:52.299Z,5.03
2019-06-26T16:48:19.190Z,5.23
2019-06-26T16:50:46.549Z,4.57
2019-06-26T16:53:13.461Z,5.47
2019-06-26T16:55:40.346Z,5.13
2019-06-26T16:58:06.668Z,5.37
2019-06-26T17:00:33.421Z,4.90
2019-06-26T17:02:59.826Z,5.33
2019-06-26T17:05:25.952Z,6.20
2019-06-26T17:07:52.192Z,5.60
2019-06-26T17:10:18.927Z,5.60
2019-06-26T17:12:45.150Z,5.90
2019-06-26T17:15:11.660Z,5.17
2019-06-26T17:17:37.836Z,5.22
2019-06-26T17:20:04.410Z,4.80
2019-06-26T17:22:30.659Z,5.43
2019-06-26T17:24:59.896Z,6.17
2019-06-26T17:27:26.095Z,6.30
2019-06-26T17:29:52.786Z,5.90
2019-06-26T17:32:19.028Z,5.70
2019-06-26T17:34:45.678Z,5.30
2019-06-26T17:37:12.350Z,4.97
2019-06-26T17:39:39.445Z,5.93
2019-06-26T17:42:05.654Z,5.83
2019-06-26T17:44:31.875Z,5.43
2019-06-26T17:46:58.148Z,5.47
2019-06-26T17:49:24.405Z,6.07
2019-06-26T17:51:50.599Z,5.30
2019-06-26T17:54:16.759Z,5.67
2019-06-26T17:56:42.976Z,4.90
2019-06-26T17:59:09.109Z,5.63
2019-06-26T18:01:35.380Z,5.73
2019-06-26T18:04:01.575Z,5.80
2019-06-26T18:06:27.703Z,6.50
2019-06-26T18:08:54.014Z,5.97
2019-06-26T18:11:20.232Z,7.00
2019-06-26T18:13:46.347Z,6.67
2019-06-26T18:16:12.695Z,6.60
2019-06-26T18:18:39.813Z,5.67
2019-06-26T18:21:06.178Z,7.00
2019-06-26T18:23:37.765Z,5.27
2019-06-26T18:26:12.339Z,5.67
2019-06-26T18:28:29.430Z,6.47
2019-06-26T18:30:56.451Z,5.83
2019-06-26T18:33:23.798Z,7.87
2019-06-26T18:35:50.211Z,6.73
2019-06-26T18:38:17.359Z,5.60
2019-06-26T18:40:44.239Z,5.33
2019-06-26T18:43:11.065Z,6.07
2019-06-26T18:45:38.127Z,5.00
2019-06-26T18:48:05.244Z,5.63
2019-06-26T18:50:32.019Z,6.30
2019-06-26T18:52:59.302Z,5.40
2019-06-26T18:55:27.244Z,4.97
2019-06-26T18:57:53.874Z,4.70
2019-06-26T19:00:21.024Z,5.63
2019-06-26T19:02:48.002Z,6.10
2019-06-26T19:05:14.390Z,6.30
2019-06-26T19:07:41.274Z,5.97
2019-06-26T19:10:13.181Z,8.30
2019-06-26T19:12:39.831Z,6.40
2019-06-26T19:15:09.019Z,6.43
2019-06-26T19:20:13.285Z,5.87
2019-06-26T19:22:39.777Z,6.17
2019-06-26T19:25:06.901Z,5.63
2019-06-26T19:27:33.512Z,5.97
2019-06-26T19:30:00.521Z,5.90
2019-06-26T19:32:27.240Z,5.67
2019-06-26T19:34:54.121Z,6.27
2019-06-26T19:37:22.231Z,6.80
2019-06-26T19:39:48.406Z,6.80
2019-06-26T19:42:14.606Z,7.27
2019-06-26T19:44:41.299Z,6.77
2019-06-26T19:47:07.562Z,7.30
2019-06-26T19:49:34.160Z,6.87
2019-06-26T19:52:00.402Z,6.40
2019-06-26T19:54:31.059Z,6.23
2019-06-26T19:56:54.689Z,6.50
2019-06-26T19:59:21.098Z,5.70
2019-06-26T20:01:51.149Z,6.60
2019-06-26T20:04:16.950Z,5.07
2019-06-26T20:06:43.457Z,4.90
2019-06-26T20:09:10.137Z,5.60
2019-06-26T20:11:36.487Z,5.53
2019-06-26T20:14:02.951Z,5.30
2019-06-26T20:16:29.209Z,4.60
2019-06-26T20:18:55.434Z,4.83
2019-06-26T20:21:21.665Z,5.00
2019-06-26T20:23:47.810Z,5.30
2019-06-26T20:26:13.963Z,5.23
2019-06-26T20:28:40.180Z,6.17
2019-06-26T20:31:06.376Z,5.40
2019-06-26T20:33:32.531Z,5.13
2019-06-26T20:35:58.651Z,4.40
2019-06-26T20:38:25.076Z,6.07
2019-06-26T20:40:51.250Z,5.73
2019-06-26T20:43:17.483Z,5.30
2019-06-26T20:45:43.714Z,5.63
2019-06-26T20:48:09.993Z,5.70
2019-06-26T20:50:41.497Z,5.80
2019-06-26T20:53:11.536Z,6.27
2019-06-26T20:55:38.907Z,6.07
2019-06-26T20:58:08.419Z,6.43
2019-06-26T21:00:34.559Z,6.57
2019-06-26T21:03:00.921Z,5.23
2019-06-26T21:05:28.835Z,5.87
2019-06-26T21:07:58.619Z,5.00
2019-06-26T21:10:24.853Z,5.50
2019-06-26T21:12:59.079Z,6.13
2019-06-26T21:15:25.423Z,4.93
2019-06-26T21:17:51.650Z,5.23
2019-06-26T21:20:17.862Z,7.90
2019-06-26T21:22:48.498Z,5.93
2019-06-26T21:25:18.900Z,6.17
2019-06-26T21:27:47.725Z,5.80
2019-06-26T21:30:14.213Z,5.50
2019-06-26T21:32:40.622Z,5.97
2019-06-26T21:35:09.847Z,5.93
2019-06-26T21:37:36.164Z,5.97
2019-06-26T21:40:02.703Z,5.80
2019-06-26T21:42:29.045Z,5.07
2019-06-26T21:44:55.300Z,6.47
2019-06-26T21:47:21.448Z,5.97
2019-06-26T21:49:47.800Z,5.33
2019-06-26T21:52:14.014Z,5.83
2019-06-26T21:54:40.160Z,5.93
2019-06-26T21:57:09.222Z,5.67
2019-06-26T21:59:35.368Z,5.73
2019-06-26T22:02:01.779Z,5.53
2019-06-26T22:04:28.091Z,6.27
2019-06-26T22:06:56.054Z,6.10
2019-06-26T22:09:27.975Z,5.50
2019-06-26T22:12:00.763Z,6.27
2019-06-26T22:14:26.196Z,6.27
2019-06-26T22:16:57.781Z,5.57
2019-06-26T22:19:24.303Z,6.70
2019-06-26T22:21:52.125Z,5.87
2019-06-26T22:24:30.006Z,6.87
2019-06-26T22:26:57.655Z,6.20
2019-06-26T22:29:23.883Z,5.40
2019-06-26T22:31:50.149Z,6.13
2019-06-26T22:34:19.411Z,7.53
2019-06-26T22:36:51.839Z,7.00
2019-06-26T22:39:19.925Z,6.07
2019-06-26T22:41:46.386Z,6.17
2019-06-26T22:44:13.469Z,6.50
2019-06-26T22:46:39.771Z,6.27
2019-06-26T22:49:05.951Z,6.53
2019-06-26T22:51:32.139Z,7.30
2019-06-26T22:53:58.578Z,7.10
2019-06-26T22:56:24.868Z,6.60
2019-06-26T22:58:51.915Z,6.63
2019-06-26T23:01:18.447Z,6.13
2019-06-26T23:03:46.113Z,6.40
2019-06-26T23:06:12.335Z,6.90
2019-06-26T23:08:39.675Z,7.07
2019-06-26T23:11:06.542Z,6.27
2019-06-26T23:13:34.538Z,6.63
2019-06-26T23:16:02.040Z,6.37
2019-06-26T23:18:28.306Z,7.17
2019-06-26T23:20:55.121Z,7.90
2019-06-26T23:23:23.302Z,8.67
2019-06-26T23:25:50.868Z,9.90
2019-06-26T23:28:17.137Z,9.30
2019-06-26T23:30:43.295Z,8.93
2019-06-26T23:33:09.410Z,8.43
2019-06-26T23:35:35.529Z,8.90
2019-06-26T23:40:29.100Z,7.13
2019-06-26T23:42:55.419Z,6.47
2019-06-26T23:45:25.987Z,8.00
2019-06-26T23:47:52.312Z,7.40
2019-06-26T23:50:18.625Z,7.53
2019-06-26T23:52:44.934Z,8.80
2019-06-26T23:55:11.507Z,9.60
2019-06-26T23:57:54.346Z,10.00
